
Distance (Route):
Temperature : 10.2°C
Humidity : 79.7%
Pressure : 0hPa| Receiver | Date | Latitude | Longitude | Direction | Speed | Altitude | Climb | Temperature | Humidity | Pressure | Voltage | Killtimer | Uptime | BKT | XDATA |
|---|---|---|---|---|---|---|---|---|---|---|---|---|---|---|---|
| LZ4TU-5 | 2026-09-01 06:59:13 | 44.71271 | 21.31208 | 110° | 26km/h | 2623m | -15.2m/s | 10.2°C | 79.7% | 0hPa | 5.4V | 00:00:00 | 00:00:00 | 00:00:00 | |
| LZ4TU-5 | 2026-09-01 06:58:53 | 44.71313 | 21.30999 | 104° | 31km/h | 2920m | -15.4m/s | 8.1°C | 89.6% | 0hPa | 5.4V | 00:00:00 | 00:00:00 | 00:00:00 | |
| LZ4TU-5 | 2026-09-01 06:58:45 | 44.71327 | 21.30914 | 105° | 29km/h | 3049m | -15.4m/s | 7.1°C | 89.0% | 0hPa | 5.4V | 00:00:00 | 00:00:00 | 00:00:00 | |
| LZ4TU-5 | 2026-09-01 06:58:40 | 44.71338 | 21.30863 | 106° | 29km/h | 3132m | -15.5m/s | 6.6°C | 82.8% | 0hPa | 5.4V | 00:00:00 | 00:00:00 | 00:00:00 | |
| LZ4TU-5 | 2026-09-01 06:58:36 | 44.71348 | 21.30826 | 106° | 27km/h | 3198m | -15.6m/s | 6.2°C | 74.2% | 0hPa | 5.4V | 00:00:00 | 00:00:00 | 00:00:00 | |
| LZ4TU-5 | 2026-09-01 06:58:31 | 44.71358 | 21.30780 | 106° | 26km/h | 3265m | -15.8m/s | 5.7°C | 69.0% | 0hPa | 5.4V | 00:00:00 | 00:00:00 | 00:00:00 | |
| LZ4TU-5 | 2026-09-01 06:58:26 | 44.71366 | 21.30736 | 104° | 26km/h | 3346m | -15.7m/s | 5.1°C | 67.3% | 0hPa | 5.4V | 00:00:00 | 00:00:00 | 00:00:00 | |
| LZ4TU-5 | 2026-09-01 06:58:21 | 44.71373 | 21.30695 | 106° | 24km/h | 3428m | -15.9m/s | 4.6°C | 63.9% | 0hPa | 5.4V | 00:00:00 | 00:00:00 | 00:00:00 | |
| LZ4TU-5 | 2026-09-01 06:58:17 | 44.71381 | 21.30661 | 105° | 26km/h | 3495m | -15.9m/s | 4.4°C | 59.1% | 0hPa | 5.4V | 00:00:00 | 00:00:00 | 00:00:00 | |
| LZ4TU-5 | 2026-09-01 06:58:12 | 44.71392 | 21.30615 | 106° | 27km/h | 3579m | -15.8m/s | 4.0°C | 47.3% | 0hPa | 5.4V | 00:00:00 | 00:00:00 | 00:00:00 | |
| LZ4TU-5 | 2026-09-01 06:58:07 | 44.71399 | 21.30564 | 108° | 31km/h | 3663m | -15.9m/s | 3.4°C | 47.2% | 0hPa | 5.4V | 00:00:00 | 00:00:00 | 00:00:00 | |
| LZ4TU-5 | 2026-09-01 06:58:02 | 44.71409 | 21.30510 | 109° | 31km/h | 3729m | -15.8m/s | 2.6°C | 52.9% | 0hPa | 5.4V | 00:00:00 | 00:00:00 | 00:00:00 | |
| LZ4TU-5 | 2026-09-01 06:57:57 | 44.71419 | 21.30456 | 102° | 31km/h | 3808m | -15.9m/s | 2.1°C | 54.0% | 0hPa | 5.4V | 00:00:00 | 00:00:00 | 00:00:00 | |
| LZ4TU-5 | 2026-09-01 06:57:53 | 44.71423 | 21.30410 | 97° | 33km/h | 3872m | -16.0m/s | 1.6°C | 54.2% | 0hPa | 5.4V | 00:00:00 | 00:00:00 | 00:00:00 | |
| LZ4TU-5 | 2026-09-01 06:57:48 | 44.71423 | 21.30352 | 95° | 33km/h | 3951m | -16.0m/s | 1.0°C | 52.1% | 0hPa | 5.4V | 00:00:00 | 00:00:00 | 00:00:00 | |
| LZ4TU-5 | 2026-09-01 06:57:43 | 44.71421 | 21.30292 | 97° | 33km/h | 4030m | -15.9m/s | 0.3°C | 50.7% | 0hPa | 5.4V | 00:00:00 | 00:00:00 | 00:00:00 | |
| LZ4TU-5 | 2026-09-01 06:57:38 | 44.71426 | 21.30231 | 103° | 35km/h | 4100m | -16.0m/s | -0.1°C | 42.7% | 0hPa | 5.4V | 00:00:00 | 00:00:00 | 00:00:00 | |
| LZ4TU-5 | 2026-09-01 06:57:33 | 44.71441 | 21.30173 | 106° | 37km/h | 4185m | -16.1m/s | -0.7°C | 41.2% | 0hPa | 5.4V | 00:00:00 | 00:00:00 | 00:00:00 | |
| LZ4TU-5 | 2026-09-01 06:57:28 | 44.71451 | 21.30112 | 103° | 37km/h | 4267m | -16.2m/s | -1.1°C | 35.2% | 0hPa | 5.4V | 00:00:00 | 00:00:00 | 00:00:00 | |
| LZ4TU-5 | 2026-09-01 06:57:23 | 44.71460 | 21.30049 | 98° | 37km/h | 4350m | -16.3m/s | -1.7°C | 42.7% | 0hPa | 5.4V | 00:00:00 | 00:00:00 | 00:00:00 | |
| LZ4TU-5 | 2026-09-01 06:57:19 | 44.71461 | 21.29995 | 95° | 38km/h | 4417m | -16.5m/s | -2.3°C | 43.0% | 0hPa | 5.4V | 00:00:00 | 00:00:00 | 00:00:00 | |
| LZ4TU-5 | 2026-09-01 06:57:15 | 44.71461 | 21.29928 | 93° | 38km/h | 4501m | -16.4m/s | -3.0°C | 40.7% | 0hPa | 5.4V | 00:00:00 | 00:00:00 | 00:00:00 | |
| LZ4TU-5 | 2026-09-01 06:57:10 | 44.71461 | 21.29873 | 93° | 38km/h | 4561m | -16.3m/s | -3.5°C | 40.6% | 0hPa | 5.4V | 00:00:00 | 00:00:00 | 00:00:00 | |
| LZ4TU-5 | 2026-09-01 06:57:05 | 44.71466 | 21.29806 | 94° | 38km/h | 4641m | -16.5m/s | -4.0°C | 34.5% | 0hPa | 5.4V | 00:00:00 | 00:00:00 | 00:00:00 | |
| LZ4TU-5 | 2026-09-01 06:57:00 | 44.71469 | 21.29737 | 97° | 38km/h | 4727m | -16.5m/s | -4.1°C | 27.2% | 0hPa | 5.4V | 00:00:00 | 00:00:00 | 00:00:00 | |
| LZ4TU-5 | 2026-09-01 06:51:10 | 44.72763 | 21.21192 | 92° | 162km/h | 11571m | -23.9m/s | -50.2°C | 23.9% | 0hPa | 5.4V | 00:00:00 | 00:00:00 | 00:00:00 | |
| LZ4TU-5 | 2026-09-01 06:51:06 | 44.72764 | 21.20963 | 92° | 161km/h | 11669m | -24.0m/s | -51.0°C | 23.2% | 0hPa | 5.4V | 00:00:00 | 00:00:00 | 00:00:00 | |
| LZ4TU-5 | 2026-09-01 06:49:42 | 44.72996 | 21.16908 | 91° | 106km/h | 13817m | -27.5m/s | -58.4°C | 3.2% | 0hPa | 5.4V | 00:00:00 | 00:00:00 | 00:00:00 | |
| LZ4TU-5 | 2026-09-01 06:49:37 | 44.72999 | 21.16722 | 94° | 104km/h | 13959m | -28.2m/s | -58.2°C | 2.5% | 0hPa | 5.4V | 00:00:00 | 00:00:00 | 00:00:00 | |
| LZ4TU-5 | 2026-09-01 06:48:06 | 44.72866 | 21.14606 | 70° | 57km/h | 16747m | -33.7m/s | -57.1°C | 0.0% | 0hPa | 5.4V | 00:00:00 | 00:00:00 | 00:00:00 | |
| LZ4TU-5 | 2026-09-01 06:48:01 | 44.72841 | 21.14514 | 75° | 57km/h | 16921m | -34.9m/s | -57.9°C | 0.0% | 0hPa | 5.4V | 00:00:00 | 00:00:00 | 00:00:00 | |
| LZ4TU-5 | 2026-09-01 06:46:28 | 44.72752 | 21.13759 | 295° | 5km/h | 20459m | -41.4m/s | -55.4°C | 0.0% | 0hPa | 5.4V | 00:00:00 | 00:00:00 | 00:00:00 | |
| LZ4TU-5 | 2026-09-01 06:46:24 | 44.72748 | 21.13766 | 323° | 9km/h | 20629m | -42.0m/s | -54.8°C | 0.0% | 0hPa | 5.4V | 00:00:00 | 00:00:00 | 00:00:00 | |
| LZ4TU-5 | 2026-09-01 06:46:19 | 44.72737 | 21.13775 | 329° | 15km/h | 20827m | -42.9m/s | -54.9°C | 0.0% | 0hPa | 5.4V | 00:00:00 | 00:00:00 | 00:00:00 | |
| LZ4TU-5 | 2026-09-01 06:46:15 | 44.72724 | 21.13784 | 343° | 13km/h | 21003m | -43.6m/s | -54.6°C | 0.0% | 0hPa | 5.4V | 00:00:00 | 00:00:00 | 00:00:00 | |
| LZ4TU-5 | 2026-09-01 06:44:35 | 44.72690 | 21.13861 | 0° | 0km/h | 26119m | -63.6m/s | -45.5°C | 0.7% | 0hPa | 5.4V | 00:00:00 | 00:00:00 | 00:00:00 | |
| LZ4TU-5 | 2026-09-01 06:44:30 | 44.72693 | 21.13853 | 122° | 5km/h | 26428m | -65.8m/s | -45.0°C | 0.8% | 0hPa | 5.4V | 00:00:00 | 00:00:00 | 00:00:00 | |
| OE3JTB-15 | 2026-09-01 06:42:13 | 44.72544 | 21.14485 | 322° | 31km/h | 31645m | 5.8m/s | -40.9°C | 0% | 0hPa | 5.4V | 00:00:00 | 00:00:00 | 00:00:00 | |
| LZ4TU-5 | 2026-09-01 06:41:21 | 44.72491 | 21.14695 | 13° | 18km/h | 31290m | 7.1m/s | -42.2°C | 2.4% | 0hPa | 5.4V | 00:00:00 | 00:00:00 | 00:00:00 | |
| LZ4TU-5 | 2026-09-01 06:41:16 | 44.72475 | 21.14732 | 282° | 40km/h | 31253m | 6.9m/s | -42.3°C | 2.4% | 0hPa | 5.4V | 00:00:00 | 00:00:00 | 00:00:00 | |
| OE3JTB-15 | 2026-09-01 06:40:23 | 44.72473 | 21.15133 | 143° | 20km/h | 30843m | 6.8m/s | -41.0°C | 0% | 0hPa | 5.4V | 00:00:00 | 00:00:00 | 00:00:00 | |
| OE3JTB-15 | 2026-09-01 06:39:52 | 44.72551 | 21.15271 | 105° | 18km/h | 30604m | 7.6m/s | -40.3°C | 0% | 0hPa | 5.4V | 00:00:00 | 00:00:00 | 00:00:00 | |
| LZ4TU-5 | 2026-09-01 06:39:33 | 44.72567 | 21.15220 | 273° | 11km/h | 30458m | 5.8m/s | -39.5°C | 1.7% | 0hPa | 5.4V | 00:00:00 | 00:00:00 | 00:00:00 | |
| LZ4TU-5 | 2026-09-01 06:39:28 | 44.72569 | 21.15217 | 84° | 37km/h | 30423m | 8.3m/s | -39.7°C | 1.7% | 0hPa | 5.4V | 00:00:00 | 00:00:00 | 00:00:00 | |
| OE3JTB-15 | 2026-09-01 06:39:20 | 44.72558 | 21.15163 | 50° | 27km/h | 30362m | 6.3m/s | -40.3°C | 0% | 0hPa | 5.4V | 00:00:00 | 00:00:00 | 00:00:00 | |
| LZ4TU-5 | 2026-09-01 06:37:28 | 44.72132 | 21.14911 | 23° | 40km/h | 29624m | 6.4m/s | -43.5°C | 1.9% | 0hPa | 5.4V | 00:00:00 | 00:00:00 | 00:00:00 | |
| LZ4TU-5 | 2026-09-01 06:37:23 | 44.72112 | 21.14923 | 266° | 24km/h | 29588m | 9.1m/s | -43.7°C | 1.9% | 0hPa | 5.4V | 00:00:00 | 00:00:00 | 00:00:00 | |
| OE3JTB-15 | 2026-09-01 06:37:17 | 44.72103 | 21.14950 | 43° | 20km/h | 29546m | 7.1m/s | -43.0°C | 0% | 0hPa | 5.4V | 00:00:00 | 00:00:00 | 00:00:00 | |
| OE3JTB-15 | 2026-09-01 06:36:44 | 44.71988 | 21.15040 | 336° | 15km/h | 29323m | 8.4m/s | -43.6°C | 0% | 0hPa | 5.4V | 00:00:00 | 00:00:00 | 00:00:00 | |
| OE3JTB-15 | 2026-09-01 06:36:15 | 44.71962 | 21.15131 | 213° | 13km/h | 29123m | 7.9m/s | -44.2°C | 0% | 0hPa | 5.4V | 00:00:00 | 00:00:00 | 00:00:00 | |
| LZ4TU-5 | 2026-09-01 06:35:53 | 44.71926 | 21.15207 | 356° | 11km/h | 28971m | 10.4m/s | -44.6°C | 1.9% | 0hPa | 5.5V | 00:00:00 | 00:00:00 | 00:00:00 | |
| LZ4TU-5 | 2026-09-01 06:35:48 | 44.71921 | 21.15216 | 323° | 13km/h | 28938m | 5.7m/s | -44.5°C | 1.9% | 0hPa | 5.5V | 00:00:00 | 00:00:00 | 00:00:00 | |
| OE3JTB-15 | 2026-09-01 06:35:45 | 44.71908 | 21.15234 | 323° | 13km/h | 28915m | 5.5m/s | -44.1°C | 0% | 0hPa | 5.5V | 00:00:00 | 00:00:00 | 00:00:00 | |
| LZ4TU-5 | 2026-09-01 06:34:15 | 44.71725 | 21.15500 | 100° | 20km/h | 28300m | 6.2m/s | -45.0°C | 1.7% | 0hPa | 5.5V | 00:00:00 | 00:00:00 | 00:00:00 | |
| LZ4TU-5 | 2026-09-01 06:34:10 | 44.71721 | 21.15505 | 249° | 22km/h | 28266m | 5.9m/s | -45.1°C | 1.7% | 0hPa | 5.5V | 00:00:00 | 00:00:00 | 00:00:00 | |
| LZ4TU-5 | 2026-09-01 06:32:35 | 44.71912 | 21.15375 | 293° | 7km/h | 27611m | 7.2m/s | -46.3°C | 1.9% | 0hPa | 5.5V | 00:00:00 | 00:00:00 | 00:00:00 | |
| LZ4TU-5 | 2026-09-01 06:32:30 | 44.71912 | 21.15376 | 82° | 5km/h | 27577m | 5.6m/s | -46.3°C | 1.9% | 0hPa | 5.5V | 00:00:00 | 00:00:00 | 00:00:00 | |
| LZ4TU-5 | 2026-09-01 06:32:26 | 44.71915 | 21.15372 | 0° | 0km/h | 27549m | 6.9m/s | -46.2°C | 1.8% | 0hPa | 5.5V | 00:00:00 | 00:00:00 | 00:00:00 | |
| OE3JTB-15 | 2026-09-01 06:32:20 | 44.71906 | 21.15386 | 312° | 11km/h | 27509m | 5.8m/s | -45.9°C | 0% | 0hPa | 5.5V | 00:00:00 | 00:00:00 | 00:00:00 | |
| OE3JTB-15 | 2026-09-01 06:31:51 | 44.71909 | 21.15322 | 209° | 9km/h | 27313m | 4.1m/s | -45.4°C | 0% | 0hPa | 5.5V | 00:00:00 | 00:00:00 | 00:00:00 | |
| OE3JTB-15 | 2026-09-01 06:31:22 | 44.71911 | 21.15318 | 117° | 15km/h | 27116m | 5.7m/s | -45.1°C | 0% | 0hPa | 5.5V | 00:00:00 | 00:00:00 | 00:00:00 | |
| LZ4TU-5 | 2026-09-01 06:30:56 | 44.71953 | 21.15356 | 187° | 11km/h | 26948m | 2.7m/s | -45.2°C | 1.5% | 0hPa | 5.5V | 00:00:00 | 00:00:00 | 00:00:00 | |
| OE3JTB-15 | 2026-09-01 06:30:53 | 44.71951 | 21.15362 | 349° | 16km/h | 26926m | 7.1m/s | -44.8°C | 0% | 0hPa | 5.5V | 00:00:00 | 00:00:00 | 00:00:00 | |
| LZ4TU-5 | 2026-09-01 06:30:51 | 44.71940 | 21.15359 | 23° | 20km/h | 26914m | 7.6m/s | -45.2°C | 1.5% | 0hPa | 5.5V | 00:00:00 | 00:00:00 | 00:00:00 | |
| OE3JTB-15 | 2026-09-01 06:30:23 | 44.71940 | 21.15286 | 224° | 13km/h | 26728m | 7.6m/s | -44.8°C | 0% | 0hPa | 5.5V | 00:00:00 | 00:00:00 | 00:00:00 | |
| OE3JTB-15 | 2026-09-01 06:29:53 | 44.71929 | 21.15246 | 36° | 16km/h | 26531m | 3.9m/s | -45.5°C | 0% | 0hPa | 5.5V | 00:00:00 | 00:00:00 | 00:00:00 | |
| LZ4TU-5 | 2026-09-01 06:29:19 | 44.71888 | 21.15322 | 230° | 13km/h | 26303m | 6.2m/s | -46.9°C | 1.3% | 0hPa | 5.5V | 00:00:00 | 00:00:00 | 00:00:00 | |
| OE3JTB-15 | 2026-09-01 06:29:15 | 44.71888 | 21.15333 | 313° | 15km/h | 26279m | 3.8m/s | -46.5°C | 0% | 0hPa | 5.5V | 00:00:00 | 00:00:00 | 00:00:00 | |
| OE3JTB-15 | 2026-09-01 06:28:40 | 44.71871 | 21.15445 | 325° | 15km/h | 26050m | 5.4m/s | -47.2°C | 0% | 0hPa | 5.5V | 00:00:00 | 00:00:00 | 00:00:00 | |
| OE3JTB-15 | 2026-09-01 06:28:11 | 44.71915 | 21.15445 | 150° | 11km/h | 25864m | 5.8m/s | -47.9°C | 0% | 0hPa | 5.5V | 00:00:00 | 00:00:00 | 00:00:00 | |
| OE3JTB-15 | 2026-09-01 06:27:42 | 44.71905 | 21.15527 | 304° | 15km/h | 25683m | 5.9m/s | -49.0°C | 0% | 0hPa | 5.5V | 00:00:00 | 00:00:00 | 00:00:00 | |
| LZ4TU-5 | 2026-09-01 06:27:40 | 44.71901 | 21.15530 | 16° | 9km/h | 25670m | 5.4m/s | -49.6°C | 1.1% | 0hPa | 5.5V | 00:00:00 | 00:00:00 | 00:00:00 | |
| LZ4TU-5 | 2026-09-01 06:27:35 | 44.71888 | 21.15545 | 265° | 26km/h | 25639m | 6.7m/s | -49.7°C | 1.1% | 0hPa | 5.5V | 00:00:00 | 00:00:00 | 00:00:00 | |
| OE3JTB-15 | 2026-09-01 06:27:13 | 44.71914 | 21.15621 | 179° | 18km/h | 25497m | 5.3m/s | -49.2°C | 0% | 0hPa | 5.5V | 00:00:00 | 00:00:00 | 00:00:00 | |
| OM5KV | 2026-09-01 06:26:46 | 44.71981 | 21.15581 | 134° | 20km/h | 25319m | 4.8m/s | -51.3°C | 0.8% | 0hPa | 5.5V | 00:00:00 | 00:00:00 | 00:00:00 | |
| OM5KV | 2026-09-01 06:26:35 | 44.71962 | 21.15577 | 124° | 20km/h | 25241m | 4.3m/s | -51.7°C | 0.8% | 0hPa | 5.5V | 00:00:00 | 00:00:00 | 00:00:00 | |
| OM5KV | 2026-09-01 06:26:30 | 44.71946 | 21.15576 | 335° | 38km/h | 25205m | 8.9m/s | -52.2°C | 0.9% | 0hPa | 5.5V | 00:00:00 | 00:00:00 | 00:00:00 | |
| OM5KV | 2026-09-01 06:26:24 | 44.71938 | 21.15594 | 171° | 24km/h | 25163m | 7.1m/s | -52.3°C | 0.9% | 0hPa | 5.5V | 00:00:00 | 00:00:00 | 00:00:00 | |
| OM5KV | 2026-09-01 06:26:08 | 44.71919 | 21.15651 | 320° | 22km/h | 25052m | 8.4m/s | -52.7°C | 1.0% | 0hPa | 5.5V | 00:00:00 | 00:00:00 | 00:00:00 | |
| OM5KV | 2026-09-01 06:26:07 | 44.71914 | 21.15656 | 332° | 27km/h | 25046m | 5.5m/s | -52.8°C | 1.1% | 0hPa | 5.5V | 00:00:00 | 00:00:00 | 00:00:00 | |
| LZ4TU-5 | 2026-09-01 06:26:05 | 44.71903 | 21.15667 | 309° | 26km/h | 25030m | 8.3m/s | -52.7°C | 1.1% | 0hPa | 5.5V | 00:00:00 | 00:00:00 | 00:00:00 | |
| LZ4TU-5 | 2026-09-01 06:26:00 | 44.71903 | 21.15691 | 248° | 11km/h | 24997m | 6.7m/s | -52.7°C | 1.2% | 0hPa | 5.5V | 00:00:00 | 00:00:00 | 00:00:00 | |
| OM5KV | 2026-09-01 06:25:55 | 44.71882 | 21.15719 | 302° | 22km/h | 24959m | 4.1m/s | -52.6°C | 1.3% | 0hPa | 5.5V | 00:00:00 | 00:00:00 | 00:00:00 | |
| OM5KV | 2026-09-01 06:25:49 | 44.71887 | 21.15759 | 212° | 11km/h | 24916m | 5.7m/s | -52.4°C | 1.2% | 0hPa | 5.5V | 00:00:00 | 00:00:00 | 00:00:00 | |
| OM5KV | 2026-09-01 06:25:44 | 44.71873 | 21.15786 | 302° | 29km/h | 24878m | 7.8m/s | -52.2°C | 1.2% | 0hPa | 5.5V | 00:00:00 | 00:00:00 | 00:00:00 | |
| OM5KV | 2026-09-01 06:25:39 | 44.71879 | 21.15846 | 244° | 37km/h | 24845m | 4.6m/s | -52.4°C | 1.2% | 0hPa | 5.5V | 00:00:00 | 00:00:00 | 00:00:00 | |
| OM5KV | 2026-09-01 06:25:28 | 44.71888 | 21.15941 | 264° | 35km/h | 24768m | 6.1m/s | -52.3°C | 1.3% | 0hPa | 5.5V | 00:00:00 | 00:00:00 | 00:00:00 | |
| OM5KV | 2026-09-01 06:25:23 | 44.71884 | 21.15961 | 274° | 4km/h | 24733m | 6.6m/s | -52.1°C | 1.2% | 0hPa | 5.5V | 00:00:00 | 00:00:00 | 00:00:00 | |
| OM5KV | 2026-09-01 06:25:17 | 44.71885 | 21.16013 | 249° | 31km/h | 24692m | 4.6m/s | -52.0°C | 1.2% | 0hPa | 5.5V | 00:00:00 | 00:00:00 | 00:00:00 | |
| OM5KV | 2026-09-01 06:25:11 | 44.71882 | 21.16023 | 88° | 4km/h | 24649m | 8.1m/s | -52.0°C | 1.3% | 0hPa | 5.5V | 00:00:00 | 00:00:00 | 00:00:00 | |
| OM5KV | 2026-09-01 06:25:06 | 44.71890 | 21.16044 | 260° | 16km/h | 24615m | 5.3m/s | -52.0°C | 1.3% | 0hPa | 5.5V | 00:00:00 | 00:00:00 | 00:00:00 | |
| OM5KV | 2026-09-01 06:25:00 | 44.71890 | 21.16046 | 19° | 18km/h | 24575m | 6.2m/s | -51.7°C | 1.2% | 0hPa | 5.5V | 00:00:00 | 00:00:00 | 00:00:00 | |
| OM5KV | 2026-09-01 06:24:50 | 44.71898 | 21.16078 | 15° | 9km/h | 24510m | 5.5m/s | -52.1°C | 1.3% | 0hPa | 5.5V | 00:00:00 | 00:00:00 | 00:00:00 | |
| OM5KV | 2026-09-01 06:24:49 | 44.71895 | 21.16076 | 25° | 13km/h | 24501m | 9.2m/s | -52.1°C | 1.3% | 0hPa | 5.5V | 00:00:00 | 00:00:00 | 00:00:00 | |
| OM5KV | 2026-09-01 06:24:44 | 44.71883 | 21.16090 | 267° | 27km/h | 24467m | 7.3m/s | -52.2°C | 1.3% | 0hPa | 5.5V | 00:00:00 | 00:00:00 | 00:00:00 | |
| OM5KV | 2026-09-01 06:24:39 | 44.71894 | 21.16123 | 292° | 9km/h | 24432m | 7.1m/s | -52.0°C | 1.3% | 0hPa | 5.5V | 00:00:00 | 00:00:00 | 00:00:00 | |
| OM5KV | 2026-09-01 06:24:37 | 44.71887 | 21.16127 | 352° | 18km/h | 24421m | 6.2m/s | -52.0°C | 1.3% | 0hPa | 5.5V | 00:00:00 | 00:00:00 | 00:00:00 | |
| OM5KV | 2026-09-01 06:24:33 | 44.71880 | 21.16139 | 268° | 24km/h | 24394m | 7.9m/s | -51.9°C | 1.3% | 0hPa | 5.5V | 00:00:00 | 00:00:00 | 00:00:00 | |
| OM5KV | 2026-09-01 06:24:32 | 44.71880 | 21.16148 | 264° | 27km/h | 24388m | 5.6m/s | -51.9°C | 1.3% | 0hPa | 5.5V | 00:00:00 | 00:00:00 | 00:00:00 | |
| OM5KV | 2026-09-01 06:24:27 | 44.71886 | 21.16185 | 289° | 20km/h | 24354m | 8.0m/s | -51.8°C | 1.2% | 0hPa | 5.5V | 00:00:00 | 00:00:00 | 00:00:00 | |
| OM5KV | 2026-09-01 06:24:26 | 44.71883 | 21.16191 | 316° | 22km/h | 24349m | 5.3m/s | -51.8°C | 1.3% | 0hPa | 5.5V | 00:00:00 | 00:00:00 | 00:00:00 | |
| OE3JTB-15 | 2026-09-01 06:24:23 | 44.71870 | 21.16198 | 357° | 16km/h | 24331m | 2.5m/s | -51.0°C | 0% | 0hPa | 5.5V | 00:00:00 | 00:00:00 | 00:00:00 | |
| LZ4TU-5 | 2026-09-01 06:24:22 | 44.71868 | 21.16199 | 332° | 9km/h | 24325m | 5.5m/s | -51.8°C | 1.2% | 0hPa | 5.5V | 00:00:00 | 00:00:00 | 00:00:00 | |
| OM5KV | 2026-09-01 06:24:20 | 44.71868 | 21.16208 | 256° | 27km/h | 24310m | 5.9m/s | -51.8°C | 1.3% | 0hPa | 5.5V | 00:00:00 | 00:00:00 | 00:00:00 | |
| LZ4TU-5 | 2026-09-01 06:24:17 | 44.71869 | 21.16237 | 305° | 24km/h | 24292m | 4.0m/s | -51.8°C | 1.3% | 0hPa | 5.5V | 00:00:00 | 00:00:00 | 00:00:00 | |
| OM5KV | 2026-09-01 06:24:09 | 44.71840 | 21.16253 | 279° | 24km/h | 24236m | 7.8m/s | -51.9°C | 1.3% | 0hPa | 5.5V | 00:00:00 | 00:00:00 | 00:00:00 | |
| OM5KV | 2026-09-01 06:24:05 | 44.71834 | 21.16298 | 295° | 35km/h | 24211m | 5.6m/s | -51.9°C | 1.3% | 0hPa | 5.5V | 00:00:00 | 00:00:00 | 00:00:00 | |
| OM5KV | 2026-09-01 06:24:04 | 44.71830 | 21.16308 | 308° | 29km/h | 24207m | 3.3m/s | -51.9°C | 1.3% | 0hPa | 5.5V | 00:00:00 | 00:00:00 | 00:00:00 | |
| OM5KV | 2026-09-01 06:24:00 | 44.71817 | 21.16323 | 314° | 7km/h | 24181m | 6.7m/s | -51.8°C | 1.3% | 0hPa | 5.5V | 00:00:00 | 00:00:00 | 00:00:00 | |
| OM5KV | 2026-09-01 06:23:53 | 44.71814 | 21.16389 | 280° | 31km/h | 24135m | 6.2m/s | -51.8°C | 1.3% | 0hPa | 5.5V | 00:00:00 | 00:00:00 | 00:00:00 | |
| OM5KV | 2026-09-01 06:23:48 | 44.71808 | 21.16420 | 281° | 16km/h | 24105m | 4.1m/s | -51.7°C | 1.3% | 0hPa | 5.5V | 00:00:00 | 00:00:00 | 00:00:00 | |
| OM5KV | 2026-09-01 06:23:45 | 44.71803 | 21.16446 | 284° | 38km/h | 24085m | 6.9m/s | -51.7°C | 1.3% | 0hPa | 5.5V | 00:00:00 | 00:00:00 | 00:00:00 | |
| OM5KV | 2026-09-01 06:23:42 | 44.71802 | 21.16488 | 271° | 31km/h | 24068m | 5.9m/s | -51.7°C | 1.3% | 0hPa | 5.5V | 00:00:00 | 00:00:00 | 00:00:00 | |
| OM5KV | 2026-09-01 06:23:37 | 44.71801 | 21.16497 | 146° | 7km/h | 24035m | 5.5m/s | -51.4°C | 1.3% | 0hPa | 5.5V | 00:00:00 | 00:00:00 | 00:00:00 | |
| OM5KV | 2026-09-01 06:23:34 | 44.71801 | 21.16502 | 296° | 16km/h | 24016m | 7.0m/s | -51.4°C | 1.3% | 0hPa | 5.5V | 00:00:00 | 00:00:00 | 00:00:00 | |
| OM5KV | 2026-09-01 06:23:28 | 44.71799 | 21.16538 | 161° | 4km/h | 23977m | 9.8m/s | -51.3°C | 1.3% | 0hPa | 5.5V | 00:00:00 | 00:00:00 | 00:00:00 | |
| OM5KV | 2026-09-01 06:23:23 | 44.71803 | 21.16532 | 243° | 11km/h | 23947m | 5.3m/s | -51.4°C | 1.3% | 0hPa | 5.5V | 00:00:00 | 00:00:00 | 00:00:00 | |
| OE3JTB-15 | 2026-09-01 06:23:20 | 44.71805 | 21.16549 | 270° | 11km/h | 23926m | 4.6m/s | -50.8°C | 0% | 0hPa | 5.5V | 00:00:00 | 00:00:00 | 00:00:00 | |
| OM5KV | 2026-09-01 06:23:18 | 44.71807 | 21.16558 | 206° | 11km/h | 23914m | 7.1m/s | -51.4°C | 1.4% | 0hPa | 5.5V | 00:00:00 | 00:00:00 | 00:00:00 | |
| OM5KV | 2026-09-01 06:23:14 | 44.71820 | 21.16542 | 101° | 13km/h | 23887m | 6.1m/s | -51.2°C | 1.3% | 0hPa | 5.5V | 00:00:00 | 00:00:00 | 00:00:00 | |
| OM5KV | 2026-09-01 06:23:05 | 44.71813 | 21.16533 | 116° | 5km/h | 23830m | 9.0m/s | -51.2°C | 1.2% | 0hPa | 5.5V | 00:00:00 | 00:00:00 | 00:00:00 | |
| OM5KV | 2026-09-01 06:22:59 | 44.71821 | 21.16511 | 35° | 11km/h | 23795m | 5.5m/s | -51.2°C | 1.2% | 0hPa | 5.5V | 00:00:00 | 00:00:00 | 00:00:00 | |
| OM5KV | 2026-09-01 06:22:53 | 44.71810 | 21.16525 | 136° | 4km/h | 23754m | 7.6m/s | -51.2°C | 1.2% | 0hPa | 5.5V | 00:00:00 | 00:00:00 | 00:00:00 | |
| OM5KV | 2026-09-01 06:22:47 | 44.71809 | 21.16512 | 318° | 13km/h | 23721m | 6.7m/s | -51.4°C | 1.3% | 0hPa | 5.5V | 00:00:00 | 00:00:00 | 00:00:00 | |
| LZ4TU-5 | 2026-09-01 06:22:46 | 44.71808 | 21.16516 | 285° | 13km/h | 23712m | 9.0m/s | -51.4°C | 1.3% | 0hPa | 5.5V | 00:00:00 | 00:00:00 | 00:00:00 | |
| OM5KV | 2026-09-01 06:22:41 | 44.71812 | 21.16536 | 209° | 9km/h | 23680m | 7.5m/s | -51.4°C | 1.3% | 0hPa | 5.5V | 00:00:00 | 00:00:00 | 00:00:00 | |
| OM5KV | 2026-09-01 06:22:35 | 44.71823 | 21.16545 | 258° | 11km/h | 23642m | 5.9m/s | -51.3°C | 1.2% | 0hPa | 5.5V | 00:00:00 | 00:00:00 | 00:00:00 | |
| OE3JTB-15 | 2026-09-01 06:22:32 | 44.71833 | 21.16559 | 208° | 16km/h | 23624m | 4.5m/s | -50.7°C | 0% | 0hPa | 5.5V | 00:00:00 | 00:00:00 | 00:00:00 | |
| OM5KV | 2026-09-01 06:22:29 | 44.71843 | 21.16568 | 244° | 5km/h | 23604m | 6.4m/s | -51.4°C | 1.2% | 0hPa | 5.6V | 00:00:00 | 00:00:00 | 00:00:00 | |
| OE3JTB-15 | 2026-09-01 06:22:03 | 44.71925 | 21.16580 | 107° | 5km/h | 23440m | 7.2m/s | -51.0°C | 0% | 0hPa | 5.6V | 00:00:00 | 00:00:00 | 00:00:00 | |
| OE3JTB-15 | 2026-09-01 06:21:33 | 44.71900 | 21.16574 | 271° | 9km/h | 23255m | 6.8m/s | -52.0°C | 0% | 0hPa | 5.6V | 00:00:00 | 00:00:00 | 00:00:00 | |
| LZ4TU-5 | 2026-09-01 06:21:12 | 44.71890 | 21.16621 | 235° | 11km/h | 23122m | 5.7m/s | -53.3°C | 1.2% | 0hPa | 5.6V | 00:00:00 | 00:00:00 | 00:00:00 | |
| LZ4TU-5 | 2026-09-01 06:21:07 | 44.71908 | 21.16644 | 209° | 18km/h | 23091m | 7.1m/s | -53.3°C | 1.1% | 0hPa | 5.6V | 00:00:00 | 00:00:00 | 00:00:00 | |
| LZ4TU-5 | 2026-09-01 06:19:40 | 44.72023 | 21.16497 | 90° | 13km/h | 22543m | 5.8m/s | -54.3°C | 1.2% | 0hPa | 5.6V | 00:00:00 | 00:00:00 | 00:00:00 | |
| LZ4TU-5 | 2026-09-01 06:19:35 | 44.72017 | 21.16463 | 69° | 29km/h | 22512m | 8.4m/s | -54.2°C | 1.3% | 0hPa | 5.6V | 00:00:00 | 00:00:00 | 00:00:00 | |
| OE3JTB-15 | 2026-09-01 06:18:09 | 44.72007 | 21.16332 | 339° | 15km/h | 21970m | 5.8m/s | -53.2°C | 0% | 0hPa | 5.6V | 00:00:00 | 00:00:00 | 00:00:00 | |
| LZ4TU-5 | 2026-09-01 06:18:08 | 44.72003 | 21.16335 | 331° | 11km/h | 21964m | 6.3m/s | -53.8°C | 1.1% | 0hPa | 5.6V | 00:00:00 | 00:00:00 | 00:00:00 | |
| LZ4TU-5 | 2026-09-01 06:18:04 | 44.72006 | 21.16322 | 106° | 24km/h | 21939m | 4.7m/s | -53.6°C | 1.1% | 0hPa | 5.6V | 00:00:00 | 00:00:00 | 00:00:00 | |
| OE3JTB-15 | 2026-09-01 06:17:40 | 44.71956 | 21.16229 | 58° | 22km/h | 21786m | 6.4m/s | -53.0°C | 0% | 0hPa | 5.6V | 00:00:00 | 00:00:00 | 00:00:00 | |
| OE3JTB-15 | 2026-09-01 06:17:11 | 44.71807 | 21.16132 | 26° | 27km/h | 21603m | 5.4m/s | -53.4°C | 0% | 0hPa | 5.6V | 00:00:00 | 00:00:00 | 00:00:00 | |
| LZ4TU-5 | 2026-09-01 06:16:34 | 44.71556 | 21.16153 | 27° | 16km/h | 21364m | 5.3m/s | -53.7°C | 1.0% | 0hPa | 5.6V | 00:00:00 | 00:00:00 | 00:00:00 | |
| LZ4TU-5 | 2026-09-01 06:16:29 | 44.71535 | 21.16158 | 323° | 26km/h | 21331m | 5.4m/s | -54.1°C | 1.0% | 0hPa | 5.6V | 00:00:00 | 00:00:00 | 00:00:00 | |
| LZ4TU-5 | 2026-09-01 06:15:01 | 44.71298 | 21.16380 | 316° | 20km/h | 20783m | 6.5m/s | -54.9°C | 1.3% | 0hPa | 5.6V | 00:00:00 | 00:00:00 | 00:00:00 | |
| LZ4TU-5 | 2026-09-01 06:14:57 | 44.71290 | 21.16402 | 296° | 7km/h | 20759m | 5.4m/s | -54.7°C | 1.2% | 0hPa | 5.6V | 00:00:00 | 00:00:00 | 00:00:00 | |
| LZ4TU-5 | 2026-09-01 06:13:25 | 44.71180 | 21.16515 | 350° | 9km/h | 20197m | 8.1m/s | -54.7°C | 1.2% | 0hPa | 5.6V | 00:00:00 | 00:00:00 | 00:00:00 | |
| LZ4TU-5 | 2026-09-01 06:13:20 | 44.71181 | 21.16516 | 152° | 9km/h | 20166m | 7.5m/s | -54.6°C | 1.2% | 0hPa | 5.6V | 00:00:00 | 00:00:00 | 00:00:00 | |
| LZ4TU-5 | 2026-09-01 06:11:51 | 44.71130 | 21.16328 | 101° | 27km/h | 19618m | 6.1m/s | -55.6°C | 1.0% | 0hPa | 5.6V | 00:00:00 | 00:00:00 | 00:00:00 | |
| LZ4TU-5 | 2026-09-01 06:11:46 | 44.71132 | 21.16278 | 70° | 27km/h | 19587m | 5.4m/s | -55.9°C | 1.1% | 0hPa | 5.6V | 00:00:00 | 00:00:00 | 00:00:00 | |
| LZ4TU-5 | 2026-09-01 06:10:12 | 44.71044 | 21.15423 | 79° | 31km/h | 19049m | 6.9m/s | -56.8°C | 1.5% | 0hPa | 5.6V | 00:00:00 | 00:00:00 | 00:00:00 | |
| OE3JTB-15 | 2026-09-01 06:10:08 | 44.71032 | 21.15383 | 64° | 35km/h | 19027m | 5.6m/s | -56.0°C | 0% | 0hPa | 5.6V | 00:00:00 | 00:00:00 | 00:00:00 | |
| LZ4TU-5 | 2026-09-01 06:10:07 | 44.71029 | 21.15372 | 68° | 37km/h | 19021m | 6.6m/s | -56.8°C | 1.5% | 0hPa | 5.7V | 00:00:00 | 00:00:00 | 00:00:00 | |
| OE3JTB-15 | 2026-09-01 06:09:38 | 44.70878 | 21.15086 | 54° | 33km/h | 18860m | 7.5m/s | -55.7°C | 0% | 0hPa | 5.7V | 00:00:00 | 00:00:00 | 00:00:00 | |
| OE3JTB-15 | 2026-09-01 06:09:08 | 44.70718 | 21.14840 | 65° | 29km/h | 18680m | 5.7m/s | -55.1°C | 0% | 0hPa | 5.7V | 00:00:00 | 00:00:00 | 00:00:00 | |
| LZ4TU-5 | 2026-09-01 06:08:37 | 44.70564 | 21.14473 | 76° | 38km/h | 18497m | 6.2m/s | -57.5°C | 1.3% | 0hPa | 5.7V | 00:00:00 | 00:00:00 | 00:00:00 | |
| LZ4TU-5 | 2026-09-01 06:08:33 | 44.70549 | 21.14436 | 34° | 33km/h | 18473m | 8.4m/s | -57.6°C | 1.3% | 0hPa | 5.7V | 00:00:00 | 00:00:00 | 00:00:00 | |
| OE3JTB-15 | 2026-09-01 06:08:17 | 44.70467 | 21.14342 | 48° | 24km/h | 18375m | 6.8m/s | -56.6°C | 0% | 0hPa | 5.7V | 00:00:00 | 00:00:00 | 00:00:00 | |
| LZ4TU-5 | 2026-09-01 06:06:58 | 44.70488 | 21.13818 | 78° | 35km/h | 17892m | 6.6m/s | -57.0°C | 1.8% | 0hPa | 0V | 00:00:00 | 00:00:00 | 00:00:00 | |
| LZ4TU-5 | 2026-09-01 06:06:54 | 44.70489 | 21.13749 | 101° | 40km/h | 17861m | 5.1m/s | -56.8°C | 1.7% | 0hPa | 0V | 00:00:00 | 00:00:00 | 00:00:00 | |
| LZ4TU-5 | 2026-09-01 06:05:17 | 44.70575 | 21.12408 | 111° | 38km/h | 17329m | 5.1m/s | -56.0°C | 2.5% | 0hPa | 0V | 00:00:00 | 00:00:00 | 00:00:00 | |
| LZ4TU-5 | 2026-09-01 06:05:12 | 44.70592 | 21.12351 | 102° | 35km/h | 17302m | 4.7m/s | -56.0°C | 2.6% | 0hPa | 0V | 00:00:00 | 00:00:00 | 00:00:00 | |
| LZ4TU-5 | 2026-09-01 06:03:38 | 44.70434 | 21.11052 | 57° | 68km/h | 16756m | 6.4m/s | -57.6°C | 3.1% | 0hPa | 0V | 00:00:00 | 00:00:00 | 00:00:00 | |
| LZ4TU-5 | 2026-09-01 06:03:34 | 44.70395 | 21.10975 | 63° | 60km/h | 16735m | 5.8m/s | -57.5°C | 3.2% | 0hPa | 0V | 00:00:00 | 00:00:00 | 00:00:00 | |
| LZ4TU-5 | 2026-09-01 06:02:06 | 44.69944 | 21.09414 | 79° | 60km/h | 16243m | 4.9m/s | -61.1°C | 4.8% | 0hPa | 0V | 00:00:00 | 00:00:00 | 00:00:00 | |
| LZ4TU-5 | 2026-09-01 06:02:01 | 44.69933 | 21.09318 | 80° | 51km/h | 16215m | 6.5m/s | -60.9°C | 4.9% | 0hPa | 0V | 00:00:00 | 00:00:00 | 00:00:00 | |
| LZ4TU-5 | 2026-09-01 06:00:25 | 44.69878 | 21.07711 | 95° | 60km/h | 15678m | 6.1m/s | -60.7°C | 4.9% | 0hPa | 0V | 00:00:00 | 00:00:00 | 00:00:00 | |
| LZ4TU-5 | 2026-09-01 06:00:20 | 44.69890 | 21.07617 | 104° | 44km/h | 15651m | 5.9m/s | -61.1°C | 4.9% | 0hPa | 0V | 00:00:00 | 00:00:00 | 00:00:00 | |
| LZ4TU-5 | 2026-09-01 05:58:53 | 44.69993 | 21.05473 | 88° | 53km/h | 15130m | 6.4m/s | -60.9°C | 5.3% | 0hPa | 0V | 00:00:00 | 00:00:00 | 00:00:00 | |
| LZ4TU-5 | 2026-09-01 05:58:48 | 44.69978 | 21.05353 | 82° | 93km/h | 15102m | 6.9m/s | -60.7°C | 5.4% | 0hPa | 0V | 00:00:00 | 00:00:00 | 00:00:00 | |
| LZ4TU-5 | 2026-09-01 05:57:20 | 44.69806 | 21.03128 | 86° | 73km/h | 14612m | 4.5m/s | -59.2°C | 8.1% | 0hPa | 0V | 00:00:00 | 00:00:00 | 00:00:00 | |
| LZ4TU-5 | 2026-09-01 05:57:16 | 44.69799 | 21.03021 | 87° | 73km/h | 14592m | 4.2m/s | -59.2°C | 8.2% | 0hPa | 0V | 00:00:00 | 00:00:00 | 00:00:00 | |
| LZ4TU-5 | 2026-09-01 05:55:48 | 44.69775 | 21.00301 | 91° | 106km/h | 14120m | 6.5m/s | -59.1°C | 12.1% | 0hPa | 0V | 00:00:00 | 00:00:00 | 00:00:00 | |
| LZ4TU-5 | 2026-09-01 05:55:44 | 44.69787 | 21.00156 | 100° | 97km/h | 14097m | 6.1m/s | -59.0°C | 12.4% | 0hPa | 0V | 00:00:00 | 00:00:00 | 00:00:00 | |
| LZ4TU-5 | 2026-09-01 05:54:16 | 44.69732 | 20.96983 | 89° | 117km/h | 13580m | 5.5m/s | -60.2°C | 16.2% | 0hPa | 0V | 00:00:00 | 00:00:00 | 00:00:00 | |
| LZ4TU-5 | 2026-09-01 05:54:11 | 44.69722 | 20.96775 | 87° | 111km/h | 13549m | 6.4m/s | -60.0°C | 16.2% | 0hPa | 0V | 00:00:00 | 00:00:00 | 00:00:00 | |
| LZ4TU-5 | 2026-09-01 05:52:41 | 44.69746 | 20.93006 | 92° | 111km/h | 13058m | 6.5m/s | -57.7°C | 17.2% | 0hPa | 0V | 00:00:00 | 00:00:00 | 00:00:00 | |
| LZ4TU-5 | 2026-09-01 05:52:36 | 44.69745 | 20.92811 | 94° | 117km/h | 13031m | 5.3m/s | -57.7°C | 17.4% | 0hPa | 0V | 00:00:00 | 00:00:00 | 00:00:00 | |
| LZ4TU-5 | 2026-09-01 05:51:02 | 44.70008 | 20.88578 | 98° | 137km/h | 12520m | 4.6m/s | -56.5°C | 20.7% | 0hPa | 0V | 00:00:00 | 00:00:00 | 00:00:00 | |
| LZ4TU-5 | 2026-09-01 05:50:58 | 44.70018 | 20.88375 | 92° | 148km/h | 12496m | 4.7m/s | -56.3°C | 20.4% | 0hPa | 0V | 00:00:00 | 00:00:00 | 00:00:00 | |
| LZ4TU-5 | 2026-09-01 05:49:28 | 44.70273 | 20.83631 | 93° | 141km/h | 11968m | 6.2m/s | -53.3°C | 20.7% | 0hPa | 0V | 00:00:00 | 00:00:00 | 00:00:00 | |
| LZ4TU-5 | 2026-09-01 05:49:23 | 44.70285 | 20.83370 | 96° | 164km/h | 11934m | 6.9m/s | -53.1°C | 20.5% | 0hPa | 0V | 00:00:00 | 00:00:00 | 00:00:00 | |
| LZ4TU-5 | 2026-09-01 05:47:53 | 44.70352 | 20.78478 | 91° | 155km/h | 11428m | 5.0m/s | -49.3°C | 18.4% | 0hPa | 0V | 00:00:00 | 00:00:00 | 00:00:00 | |
| LZ4TU-5 | 2026-09-01 05:46:21 | 44.70331 | 20.73814 | 87° | 135km/h | 10867m | 3.8m/s | -45.5°C | 17.6% | 0hPa | 0V | 00:00:00 | 00:00:00 | 00:00:00 | |
| LZ4TU-5 | 2026-09-01 05:44:52 | 44.70361 | 20.69784 | 95° | 133km/h | 10344m | 5.7m/s | -42.5°C | 20.3% | 0hPa | 0V | 00:00:00 | 00:00:00 | 00:00:00 | |
| LZ4TU-5 | 2026-09-01 05:44:47 | 44.70368 | 20.69564 | 93° | 97km/h | 10321m | 6.9m/s | -42.4°C | 20.7% | 0hPa | 0V | 00:00:00 | 00:00:00 | 00:00:00 | |
| LZ4TU-5 | 2026-09-01 05:43:04 | 44.70737 | 20.65817 | 106° | 110km/h | 9722m | 4.3m/s | -38.0°C | 20.9% | 0hPa | 0V | 00:00:00 | 00:00:00 | 00:00:00 | |
| LZ4TU-5 | 2026-09-01 05:42:59 | 44.70752 | 20.65623 | 96° | 100km/h | 9698m | 5.0m/s | -37.9°C | 20.3% | 0hPa | 0V | 00:00:00 | 00:00:00 | 00:00:00 | |
| LZ4TU-5 | 2026-09-01 05:41:31 | 44.71085 | 20.62653 | 103° | 95km/h | 9199m | 4.6m/s | -34.7°C | 11.5% | 0hPa | 0V | 00:00:00 | 00:00:00 | 00:00:00 | |
| LZ4TU-5 | 2026-09-01 05:41:27 | 44.71111 | 20.62535 | 104° | 78km/h | 9173m | 6.7m/s | -34.5°C | 10.9% | 0hPa | 0V | 00:00:00 | 00:00:00 | 00:00:00 | |
| LZ4TU-5 | 2026-09-01 05:40:00 | 44.71480 | 20.60568 | 127° | 71km/h | 8681m | 4.5m/s | -31.3°C | 8.6% | 0hPa | 0V | 00:00:00 | 00:00:00 | 00:00:00 | |
| LZ4TU-5 | 2026-09-01 05:39:55 | 44.71528 | 20.60490 | 115° | 51km/h | 8654m | 6.6m/s | -31.1°C | 8.6% | 0hPa | 0V | 00:00:00 | 00:00:00 | 00:00:00 | |
| LZ4TU-5 | 2026-09-01 05:38:28 | 44.72103 | 20.58611 | 100° | 55km/h | 8171m | 6.0m/s | -27.1°C | 7.6% | 0hPa | 0V | 00:00:00 | 00:00:00 | 00:00:00 | |
| LZ4TU-5 | 2026-09-01 05:38:23 | 44.72103 | 20.58498 | 103° | 64km/h | 8147m | 6.9m/s | -26.9°C | 8.0% | 0hPa | 0V | 00:00:00 | 00:00:00 | 00:00:00 | |
| LZ4TU-5 | 2026-09-01 05:36:49 | 44.72682 | 20.56464 | 112° | 55km/h | 7645m | 5.0m/s | -22.6°C | 14.4% | 0hPa | 0V | 00:00:00 | 00:00:00 | 00:00:00 | |
| LZ4TU-5 | 2026-09-01 05:36:45 | 44.72715 | 20.56385 | 122° | 75km/h | 7620m | 6.1m/s | -22.4°C | 15.0% | 0hPa | 0V | 00:00:00 | 00:00:00 | 00:00:00 | |
| LZ4TU-5 | 2026-09-01 05:33:55 | 44.73627 | 20.53432 | 113° | 35km/h | 6676m | 3.9m/s | -15.2°C | 28.8% | 0hPa | 0V | 00:00:00 | 00:00:00 | 00:00:00 | |
| LZ4TU-5 | 2026-09-01 05:33:52 | 44.73662 | 20.53380 | 144° | 58km/h | 6654m | 6.2m/s | -15.0°C | 29.3% | 0hPa | 0V | 00:00:00 | 00:00:00 | 00:00:00 | |
| LZ4TU-5 | 2026-09-01 05:32:40 | 44.74137 | 20.52217 | 124° | 35km/h | 6240m | 7.3m/s | -11.7°C | 28.9% | 0hPa | 0V | 00:00:00 | 00:00:00 | 00:00:00 | |
| LZ4TU-5 | 2026-09-01 05:32:35 | 44.74152 | 20.52161 | 105° | 51km/h | 6212m | 6.8m/s | -11.5°C | 28.7% | 0hPa | 0V | 00:00:00 | 00:00:00 | 00:00:00 | |
| LZ4TU-5 | 2026-09-01 05:31:21 | 44.74512 | 20.50885 | 76° | 51km/h | 5798m | 6.9m/s | -9.0°C | 7.5% | 0hPa | 0V | 00:00:00 | 00:00:00 | 00:00:00 | |
| LZ4TU-5 | 2026-09-01 05:31:16 | 44.74506 | 20.50802 | 121° | 33km/h | 5767m | 7.1m/s | -8.8°C | 7.5% | 0hPa | 0V | 00:00:00 | 00:00:00 | 00:00:00 | |
| LZ4TU-5 | 2026-09-01 05:30:04 | 44.74689 | 20.49630 | 91° | 53km/h | 5345m | 5.8m/s | -6.1°C | 7.2% | 0hPa | 0V | 00:00:00 | 00:00:00 | 00:00:00 | |
| LZ4TU-5 | 2026-09-01 05:29:59 | 44.74696 | 20.49568 | 95° | 38km/h | 5314m | 5.1m/s | -6.1°C | 7.8% | 0hPa | 0V | 00:00:00 | 00:00:00 | 00:00:00 | |
| LZ4TU-5 | 2026-09-01 05:28:38 | 44.74787 | 20.48225 | 81° | 42km/h | 4830m | 6.4m/s | -3.9°C | 23.9% | 0hPa | 0V | 00:00:00 | 00:00:00 | 00:00:00 | |
| LZ4TU-5 | 2026-09-01 05:28:34 | 44.74786 | 20.48163 | 96° | 33km/h | 4807m | 7.1m/s | -3.7°C | 22.2% | 0hPa | 0V | 00:00:00 | 00:00:00 | 00:00:00 | |
| LZ4TU-5 | 2026-09-01 05:28:28 | 44.74789 | 20.48071 | 108° | 58km/h | 4773m | 5.0m/s | -3.5°C | 21.9% | 0hPa | 0V | 00:00:00 | 00:00:00 | 00:00:00 | |
| LZ4TU-5 | 2026-09-01 05:28:23 | 44.74785 | 20.47993 | 64° | 47km/h | 4743m | 4.3m/s | -3.3°C | 21.1% | 0hPa | 0V | 00:00:00 | 00:00:00 | 00:00:00 | |
| LZ4TU-5 | 2026-09-01 05:27:07 | 44.74901 | 20.46941 | 83° | 40km/h | 4325m | 5.1m/s | -2.1°C | 37.7% | 0hPa | 0V | 00:00:00 | 00:00:00 | 00:00:00 | |
| LZ4TU-5 | 2026-09-01 05:27:02 | 44.74914 | 20.46881 | 109° | 53km/h | 4299m | 5.6m/s | -1.9°C | 37.4% | 0hPa | 0V | 00:00:00 | 00:00:00 | 00:00:00 | |
| LZ4TU-5 | 2026-09-01 05:26:56 | 44.74910 | 20.46784 | 108° | 24km/h | 4269m | 5.5m/s | -1.6°C | 37.8% | 0hPa | 0V | 00:00:00 | 00:00:00 | 00:00:00 |